Smokerun, Pennsylvania
Current Conditions -  °F | °C
As of 8:54 PM on Saturday 20 Dec 2014 (Local Time) from KFIG Reporting Station
Overcast Overcast  
Wind Chill: 27°   Ceiling: 1800
Heat Index: 27°   Visibility: 10mi
Dew Point: 19°   Wind: 0mph
Humidity: 72%   Direction: NA
Pressure: 30.23"   Gusts: NA
Location:  40.8°N, 78.43°W
Report Text: KFIG 210154Z AUTO 00000KT 10SM OVC018 M03/M07 A3023 RMK AO2 SLP257 T10281072
Loading
Personal Weather Stations






























Interactive Weather Map New forecast layout! Learn more

10-Day Weather Forecast

Advertisements
Track Severe Weather on mobile